sensor_id;sensor_type;location;lat;lon;timestamp;pressure;altitude;pressure_sealevel;temperature;humidity
28267;BME280;15525;45.568;5.448;2023-07-24T00:02:05;97455.75;;;29.61;41.77
28267;BME280;15525;45.568;5.448;2023-07-24T00:04:31;97463.63;;;29.62;42.01
28267;BME280;15525;45.568;5.448;2023-07-24T00:06:57;97458.13;;;29.55;41.78
28267;BME280;15525;45.568;5.448;2023-07-24T00:09:22;97456.94;;;29.53;42.17
28267;BME280;15525;45.568;5.448;2023-07-24T00:11:48;97456.56;;;29.54;42.07
28267;BME280;15525;45.568;5.448;2023-07-24T00:14:15;97459.69;;;29.60;42.22
28267;BME280;15525;45.568;5.448;2023-07-24T00:16:40;97445.50;;;29.58;42.39
28267;BME280;15525;45.568;5.448;2023-07-24T00:19:06;97443.94;;;29.57;41.93
28267;BME280;15525;45.568;5.448;2023-07-24T00:21:31;97415.56;;;29.53;42.53
28267;BME280;15525;45.568;5.448;2023-07-24T00:23:57;97431.38;;;29.49;42.54
28267;BME280;15525;45.568;5.448;2023-07-24T00:26:22;97436.16;;;29.41;42.50
28267;BME280;15525;45.568;5.448;2023-07-24T00:28:47;97438.66;;;29.25;43.47
28267;BME280;15525;45.568;5.448;2023-07-24T00:31:13;97410.66;;;29.27;43.15
28267;BME280;15525;45.568;5.448;2023-07-24T00:33:38;97392.91;;;29.31;43.19
28267;BME280;15525;45.568;5.448;2023-07-24T00:36:04;97396.41;;;29.35;42.74
28267;BME280;15525;45.568;5.448;2023-07-24T00:38:29;97403.97;;;29.24;43.87
28267;BME280;15525;45.568;5.448;2023-07-24T00:40:55;97386.44;;;29.04;44.27
28267;BME280;15525;45.568;5.448;2023-07-24T00:43:20;97372.00;;;28.79;45.45
28267;BME280;15525;45.568;5.448;2023-07-24T00:45:46;97350.19;;;29.02;44.36
28267;BME280;15525;45.568;5.448;2023-07-24T00:48:13;97372.09;;;29.23;43.94
28267;BME280;15525;45.568;5.448;2023-07-24T00:50:39;97338.00;;;28.96;44.70
28267;BME280;15525;45.568;5.448;2023-07-24T00:53:07;97350.16;;;29.09;44.65
28267;BME280;15525;45.568;5.448;2023-07-24T00:55:32;97349.53;;;28.84;45.80
28267;BME280;15525;45.568;5.448;2023-07-24T00:57:58;97346.72;;;28.98;45.17
28267;BME280;15525;45.568;5.448;2023-07-24T01:00:25;97351.47;;;28.87;45.89
28267;BME280;15525;45.568;5.448;2023-07-24T01:02:51;97325.09;;;28.86;45.74
28267;BME280;15525;45.568;5.448;2023-07-24T01:05:17;97312.84;;;28.94;45.70
28267;BME280;15525;45.568;5.448;2023-07-24T01:07:43;97323.38;;;29.10;44.93
28267;BME280;15525;45.568;5.448;2023-07-24T01:10:08;97329.38;;;28.94;45.51
28267;BME280;15525;45.568;5.448;2023-07-24T01:12:59;97319.06;;;29.05;45.61
28267;BME280;15525;45.568;5.448;2023-07-24T01:15:46;97321.56;;;28.86;45.44
28267;BME280;15525;45.568;5.448;2023-07-24T01:18:15;97307.97;;;28.61;45.73
28267;BME280;15525;45.568;5.448;2023-07-24T01:20:48;97320.94;;;28.64;46.11
28267;BME280;15525;45.568;5.448;2023-07-24T01:26:19;97335.69;;;28.91;45.24
28267;BME280;15525;45.568;5.448;2023-07-24T01:28:44;97368.84;;;28.84;45.55
28267;BME280;15525;45.568;5.448;2023-07-24T01:31:11;97392.16;;;28.66;45.79
28267;BME280;15525;45.568;5.448;2023-07-24T01:33:37;97415.47;;;28.51;46.05
28267;BME280;15525;45.568;5.448;2023-07-24T01:36:03;97460.00;;;28.28;46.84
28267;BME280;15525;45.568;5.448;2023-07-24T01:38:31;97484.09;;;27.89;47.93
28267;BME280;15525;45.568;5.448;2023-07-24T01:40:59;97526.91;;;28.04;48.13
28267;BME280;15525;45.568;5.448;2023-07-24T01:43:25;97570.53;;;27.74;49.11
28267;BME280;15525;45.568;5.448;2023-07-24T01:45:54;97581.94;;;27.76;48.93
28267;BME280;15525;45.568;5.448;2023-07-24T01:48:20;97650.41;;;27.88;50.20
28267;BME280;15525;45.568;5.448;2023-07-24T01:50:45;97657.84;;;27.91;50.66
28267;BME280;15525;45.568;5.448;2023-07-24T01:53:10;97659.34;;;27.64;52.01
28267;BME280;15525;45.568;5.448;2023-07-24T01:55:36;97687.28;;;27.76;53.25
28267;BME280;15525;45.568;5.448;2023-07-24T01:58:01;97658.31;;;27.00;55.16
28267;BME280;15525;45.568;5.448;2023-07-24T02:00:27;97626.22;;;27.18;54.98
28267;BME280;15525;45.568;5.448;2023-07-24T02:02:52;97595.16;;;27.18;55.53
28267;BME280;15525;45.568;5.448;2023-07-24T02:05:18;97433.00;;;27.46;54.61
28267;BME280;15525;45.568;5.448;2023-07-24T02:07:43;97434.59;;;27.47;56.94
28267;BME280;15525;45.568;5.448;2023-07-24T02:10:09;97497.03;;;27.36;55.55
28267;BME280;15525;45.568;5.448;2023-07-24T02:12:34;97440.84;;;27.58;55.59
28267;BME280;15525;45.568;5.448;2023-07-24T02:15:00;97406.66;;;27.62;56.11
28267;BME280;15525;45.568;5.448;2023-07-24T02:17:25;97389.81;;;27.22;57.30
28267;BME280;15525;45.568;5.448;2023-07-24T02:19:51;97419.19;;;26.72;58.86
28267;BME280;15525;45.568;5.448;2023-07-24T02:22:16;97452.56;;;26.81;58.16
28267;BME280;15525;45.568;5.448;2023-07-24T02:24:42;97467.50;;;27.05;57.84
28267;BME280;15525;45.568;5.448;2023-07-24T02:27:07;97483.28;;;27.36;56.95
28267;BME280;15525;45.568;5.448;2023-07-24T02:29:33;97494.28;;;27.36;58.56
28267;BME280;15525;45.568;5.448;2023-07-24T02:31:59;97495.47;;;27.35;58.52
28267;BME280;15525;45.568;5.448;2023-07-24T02:34:24;97471.44;;;27.18;57.78
28267;BME280;15525;45.568;5.448;2023-07-24T02:36:52;97481.72;;;27.21;58.44
28267;BME280;15525;45.568;5.448;2023-07-24T02:39:19;97475.03;;;27.22;58.92
28267;BME280;15525;45.568;5.448;2023-07-24T02:41:44;97472.19;;;26.94;59.35
28267;BME280;15525;45.568;5.448;2023-07-24T02:44:10;97469.06;;;26.99;59.46
28267;BME280;15525;45.568;5.448;2023-07-24T02:46:36;97458.84;;;26.89;59.01
28267;BME280;15525;45.568;5.448;2023-07-24T02:49:01;97465.06;;;26.72;59.65
28267;BME280;15525;45.568;5.448;2023-07-24T02:51:27;97468.13;;;26.53;60.61
28267;BME280;15525;45.568;5.448;2023-07-24T02:53:53;97466.63;;;26.69;60.45
28267;BME280;15525;45.568;5.448;2023-07-24T02:56:19;97457.22;;;26.60;60.13
28267;BME280;15525;45.568;5.448;2023-07-24T02:58:46;97441.91;;;26.69;59.89
28267;BME280;15525;45.568;5.448;2023-07-24T03:01:11;97458.81;;;26.78;60.10
28267;BME280;15525;45.568;5.448;2023-07-24T03:03:42;97452.53;;;26.71;60.25
28267;BME280;15525;45.568;5.448;2023-07-24T03:06:07;97462.19;;;26.44;60.87
28267;BME280;15525;45.568;5.448;2023-07-24T03:08:33;97453.16;;;26.43;60.66
28267;BME280;15525;45.568;5.448;2023-07-24T03:10:59;97444.56;;;26.45;60.47
28267;BME280;15525;45.568;5.448;2023-07-24T03:13:24;97450.38;;;26.29;60.12
28267;BME280;15525;45.568;5.448;2023-07-24T03:15:57;97463.31;;;26.25;60.54
28267;BME280;15525;45.568;5.448;2023-07-24T03:18:23;97475.09;;;26.33;60.66
28267;BME280;15525;45.568;5.448;2023-07-24T03:20:49;97471.19;;;26.30;60.51
28267;BME280;15525;45.568;5.448;2023-07-24T03:23:14;97455.84;;;26.19;60.16
28267;BME280;15525;45.568;5.448;2023-07-24T03:25:40;97446.03;;;26.25;60.45
28267;BME280;15525;45.568;5.448;2023-07-24T03:28:05;97429.63;;;26.39;59.58
28267;BME280;15525;45.568;5.448;2023-07-24T03:30:31;97441.50;;;26.60;59.51
28267;BME280;15525;45.568;5.448;2023-07-24T03:32:57;97439.09;;;26.52;60.26
28267;BME280;15525;45.568;5.448;2023-07-24T03:35:23;97421.81;;;26.55;60.14
28267;BME280;15525;45.568;5.448;2023-07-24T03:37:48;97403.06;;;26.64;59.67
28267;BME280;15525;45.568;5.448;2023-07-24T03:40:14;97373.16;;;26.41;60.08
28267;BME280;15525;45.568;5.448;2023-07-24T03:42:41;97379.41;;;26.38;59.87
28267;BME280;15525;45.568;5.448;2023-07-24T03:45:07;97380.59;;;26.34;59.83
28267;BME280;15525;45.568;5.448;2023-07-24T03:47:32;97373.31;;;25.87;61.31
28267;BME280;15525;45.568;5.448;2023-07-24T03:49:58;97368.13;;;25.65;62.14
28267;BME280;15525;45.568;5.448;2023-07-24T03:52:23;97375.28;;;25.87;62.24
28267;BME280;15525;45.568;5.448;2023-07-24T03:54:49;97341.59;;;25.90;61.56
28267;BME280;15525;45.568;5.448;2023-07-24T03:57:14;97363.59;;;25.93;61.71
28267;BME280;15525;45.568;5.448;2023-07-24T03:59:40;97342.34;;;25.83;61.67
28267;BME280;15525;45.568;5.448;2023-07-24T04:02:05;97323.50;;;25.78;61.85
28267;BME280;15525;45.568;5.448;2023-07-24T04:04:31;97335.00;;;25.94;61.71
28267;BME280;15525;45.568;5.448;2023-07-24T04:06:56;97338.44;;;25.84;61.87
28267;BME280;15525;45.568;5.448;2023-07-24T04:09:22;97357.66;;;25.91;61.64
28267;BME280;15525;45.568;5.448;2023-07-24T04:11:47;97389.84;;;25.94;61.23
28267;BME280;15525;45.568;5.448;2023-07-24T04:14:13;97390.56;;;25.88;61.38
28267;BME280;15525;45.568;5.448;2023-07-24T04:16:38;97460.59;;;25.71;61.50
28267;BME280;15525;45.568;5.448;2023-07-24T04:19:04;97503.19;;;25.18;63.85
28267;BME280;15525;45.568;5.448;2023-07-24T04:21:29;97501.03;;;25.34;63.34
28267;BME280;15525;45.568;5.448;2023-07-24T04:23:55;97436.50;;;25.44;62.70
28267;BME280;15525;45.568;5.448;2023-07-24T04:26:20;97393.56;;;25.65;62.56
28267;BME280;15525;45.568;5.448;2023-07-24T04:28:46;97379.91;;;25.69;62.44
28267;BME280;15525;45.568;5.448;2023-07-24T04:31:11;97352.63;;;26.00;61.67
28267;BME280;15525;45.568;5.448;2023-07-24T04:33:38;97341.44;;;25.55;63.12
28267;BME280;15525;45.568;5.448;2023-07-24T04:36:04;97330.53;;;25.72;62.94
28267;BME280;15525;45.568;5.448;2023-07-24T04:38:29;97290.53;;;25.61;63.06
28267;BME280;15525;45.568;5.448;2023-07-24T04:40:55;97283.50;;;25.67;63.04
28267;BME280;15525;45.568;5.448;2023-07-24T04:43:20;97304.34;;;25.17;63.57
28267;BME280;15525;45.568;5.448;2023-07-24T04:45:46;97332.06;;;24.62;64.64
28267;BME280;15525;45.568;5.448;2023-07-24T04:48:11;97368.22;;;25.25;63.21
28267;BME280;15525;45.568;5.448;2023-07-24T04:50:36;97424.34;;;25.45;61.21
28267;BME280;15525;45.568;5.448;2023-07-24T04:53:02;97488.94;;;25.42;61.04
28267;BME280;15525;45.568;5.448;2023-07-24T04:55:27;97516.78;;;25.44;61.58
28267;BME280;15525;45.568;5.448;2023-07-24T04:57:53;97491.53;;;25.72;61.10
28267;BME280;15525;45.568;5.448;2023-07-24T05:00:18;97504.66;;;25.92;60.56
28267;BME280;15525;45.568;5.448;2023-07-24T05:02:44;97550.25;;;26.07;60.79
28267;BME280;15525;45.568;5.448;2023-07-24T05:05:09;97532.69;;;26.26;60.98
28267;BME280;15525;45.568;5.448;2023-07-24T05:07:34;97539.44;;;26.35;60.55
28267;BME280;15525;45.568;5.448;2023-07-24T05:10:00;97546.19;;;26.55;60.42
28267;BME280;15525;45.568;5.448;2023-07-24T05:12:26;97521.44;;;26.45;60.74
28267;BME280;15525;45.568;5.448;2023-07-24T05:14:51;97505.25;;;26.22;60.70
28267;BME280;15525;45.568;5.448;2023-07-24T05:17:17;97455.78;;;26.15;60.71
28267;BME280;15525;45.568;5.448;2023-07-24T05:19:42;97406.75;;;26.10;60.98
28267;BME280;15525;45.568;5.448;2023-07-24T05:22:08;97390.88;;;25.72;61.13
28267;BME280;15525;45.568;5.448;2023-07-24T05:24:36;97421.31;;;25.57;61.41
28267;BME280;15525;45.568;5.448;2023-07-24T05:27:01;97384.41;;;25.40;61.53
28267;BME280;15525;45.568;5.448;2023-07-24T05:29:27;97344.41;;;25.36;62.93
28267;BME280;15525;45.568;5.448;2023-07-24T05:31:52;97322.47;;;25.32;62.22
28267;BME280;15525;45.568;5.448;2023-07-24T05:34:18;97293.88;;;25.30;62.27
28267;BME280;15525;45.568;5.448;2023-07-24T05:36:43;97298.13;;;25.20;62.50
28267;BME280;15525;45.568;5.448;2023-07-24T05:39:08;97300.78;;;25.10;63.24
28267;BME280;15525;45.568;5.448;2023-07-24T05:41:34;97315.34;;;25.24;62.61
28267;BME280;15525;45.568;5.448;2023-07-24T05:43:59;97317.25;;;25.17;63.11
28267;BME280;15525;45.568;5.448;2023-07-24T05:46:25;97317.00;;;25.32;62.31
28267;BME280;15525;45.568;5.448;2023-07-24T05:48:50;97312.34;;;25.40;61.87
28267;BME280;15525;45.568;5.448;2023-07-24T05:51:15;97314.69;;;25.34;61.49
28267;BME280;15525;45.568;5.448;2023-07-24T05:53:41;97327.22;;;25.39;61.85
28267;BME280;15525;45.568;5.448;2023-07-24T05:56:06;97320.13;;;25.31;61.97
28267;BME280;15525;45.568;5.448;2023-07-24T05:58:32;97337.59;;;25.70;60.95
28267;BME280;15525;45.568;5.448;2023-07-24T06:00:57;97321.16;;;25.77;60.25
28267;BME280;15525;45.568;5.448;2023-07-24T06:03:23;97340.75;;;25.79;60.24
28267;BME280;15525;45.568;5.448;2023-07-24T06:05:55;97330.72;;;25.36;61.60
28267;BME280;15525;45.568;5.448;2023-07-24T06:08:22;97326.59;;;25.66;61.04
28267;BME280;15525;45.568;5.448;2023-07-24T06:10:48;97286.22;;;25.60;60.53
28267;BME280;15525;45.568;5.448;2023-07-24T06:13:17;97300.81;;;25.81;60.60
28267;BME280;15525;45.568;5.448;2023-07-24T06:15:43;97287.34;;;25.48;60.48
28267;BME280;15525;45.568;5.448;2023-07-24T06:18:09;97318.06;;;25.85;59.81
28267;BME280;15525;45.568;5.448;2023-07-24T06:20:35;97340.19;;;26.24;58.78
28267;BME280;15525;45.568;5.448;2023-07-24T06:23:01;97360.28;;;26.66;57.74
28267;BME280;15525;45.568;5.448;2023-07-24T06:25:29;97375.09;;;26.34;58.07
28267;BME280;15525;45.568;5.448;2023-07-24T06:27:55;97380.13;;;26.11;59.01
28267;BME280;15525;45.568;5.448;2023-07-24T06:30:21;97386.94;;;25.70;59.26
28267;BME280;15525;45.568;5.448;2023-07-24T06:32:46;97408.81;;;25.59;60.42
28267;BME280;15525;45.568;5.448;2023-07-24T06:35:11;97424.88;;;25.57;59.30
28267;BME280;15525;45.568;5.448;2023-07-24T06:37:37;97393.97;;;25.67;58.68
28267;BME280;15525;45.568;5.448;2023-07-24T06:40:02;97401.28;;;26.07;57.90
28267;BME280;15525;45.568;5.448;2023-07-24T06:42:28;97413.16;;;26.35;57.85
28267;BME280;15525;45.568;5.448;2023-07-24T06:44:53;97431.09;;;26.12;56.37
28267;BME280;15525;45.568;5.448;2023-07-24T06:47:19;97434.75;;;26.37;56.69
28267;BME280;15525;45.568;5.448;2023-07-24T06:49:44;97422.34;;;25.92;55.85
28267;BME280;15525;45.568;5.448;2023-07-24T06:52:10;97411.25;;;25.75;57.29
28267;BME280;15525;45.568;5.448;2023-07-24T06:54:35;97441.69;;;26.13;56.06
28267;BME280;15525;45.568;5.448;2023-07-24T06:57:00;97437.44;;;26.26;55.77
28267;BME280;15525;45.568;5.448;2023-07-24T06:59:26;97445.09;;;25.96;56.23
28267;BME280;15525;45.568;5.448;2023-07-24T07:01:51;97436.94;;;26.07;56.47
28267;BME280;15525;45.568;5.448;2023-07-24T07:04:17;97422.53;;;26.27;56.97
28267;BME280;15525;45.568;5.448;2023-07-24T07:06:42;97413.25;;;26.56;56.83
28267;BME280;15525;45.568;5.448;2023-07-24T07:09:08;97403.78;;;26.54;56.52
28267;BME280;15525;45.568;5.448;2023-07-24T07:11:33;97425.03;;;26.64;55.19
28267;BME280;15525;45.568;5.448;2023-07-24T07:13:58;97397.59;;;26.71;55.89
28267;BME280;15525;45.568;5.448;2023-07-24T07:16:24;97418.81;;;26.95;56.96
28267;BME280;15525;45.568;5.448;2023-07-24T07:18:49;97425.91;;;27.13;57.63
28267;BME280;15525;45.568;5.448;2023-07-24T07:21:15;97407.06;;;27.19;58.34
28267;BME280;15525;45.568;5.448;2023-07-24T07:23:40;97396.06;;;27.50;58.34
28267;BME280;15525;45.568;5.448;2023-07-24T07:26:05;97376.31;;;28.08;57.38
28267;BME280;15525;45.568;5.448;2023-07-24T07:28:31;97332.09;;;28.39;57.08
28267;BME280;15525;45.568;5.448;2023-07-24T07:30:56;97342.06;;;28.81;56.71
28267;BME280;15525;45.568;5.448;2023-07-24T07:33:22;97355.06;;;28.84;56.24
28267;BME280;15525;45.568;5.448;2023-07-24T07:35:48;97333.53;;;28.62;56.20
28267;BME280;15525;45.568;5.448;2023-07-24T07:38:14;97347.38;;;28.51;55.72
28267;BME280;15525;45.568;5.448;2023-07-24T07:40:39;97372.41;;;27.95;56.13
28267;BME280;15525;45.568;5.448;2023-07-24T07:43:05;97365.38;;;27.76;56.17
28267;BME280;15525;45.568;5.448;2023-07-24T07:45:31;97379.53;;;27.68;57.24
28267;BME280;15525;45.568;5.448;2023-07-24T07:47:57;97368.19;;;27.52;56.80
28267;BME280;15525;45.568;5.448;2023-07-24T07:50:22;97361.53;;;27.39;57.28
28267;BME280;15525;45.568;5.448;2023-07-24T07:52:51;97368.59;;;27.19;57.63
28267;BME280;15525;45.568;5.448;2023-07-24T07:55:18;97382.72;;;27.07;58.15
28267;BME280;15525;45.568;5.448;2023-07-24T07:57:43;97380.75;;;27.14;57.94
28267;BME280;15525;45.568;5.448;2023-07-24T08:00:09;97363.47;;;27.07;58.15
28267;BME280;15525;45.568;5.448;2023-07-24T08:02:35;97361.50;;;27.00;58.51
28267;BME280;15525;45.568;5.448;2023-07-24T08:05:00;97370.94;;;27.03;58.33
28267;BME280;15525;45.568;5.448;2023-07-24T08:07:26;97385.09;;;27.19;57.99
28267;BME280;15525;45.568;5.448;2023-07-24T08:09:51;97389.03;;;27.28;58.07
28267;BME280;15525;45.568;5.448;2023-07-24T08:12:17;97385.47;;;27.28;58.41
28267;BME280;15525;45.568;5.448;2023-07-24T08:14:42;97361.13;;;27.16;58.04
28267;BME280;15525;45.568;5.448;2023-07-24T08:17:08;97355.22;;;27.07;57.99
28267;BME280;15525;45.568;5.448;2023-07-24T08:19:33;97349.72;;;27.00;58.61
28267;BME280;15525;45.568;5.448;2023-07-24T08:21:59;97354.03;;;26.66;59.20
28267;BME280;15525;45.568;5.448;2023-07-24T08:24:24;97347.75;;;26.62;59.45
28267;BME280;15525;45.568;5.448;2023-07-24T08:26:50;97373.19;;;26.52;60.19
28267;BME280;15525;45.568;5.448;2023-07-24T08:29:15;97387.38;;;26.61;60.29
28267;BME280;15525;45.568;5.448;2023-07-24T08:31:41;97335.97;;;26.72;59.93
28267;BME280;15525;45.568;5.448;2023-07-24T08:34:06;97325.00;;;26.65;60.29
28267;BME280;15525;45.568;5.448;2023-07-24T08:36:32;97338.72;;;26.58;60.38
28267;BME280;15525;45.568;5.448;2023-07-24T08:38:57;97392.78;;;26.43;60.70
28267;BME280;15525;45.568;5.448;2023-07-24T08:41:23;97383.75;;;26.50;60.50
28267;BME280;15525;45.568;5.448;2023-07-24T08:43:48;97370.91;;;26.61;59.75
28267;BME280;15525;45.568;5.448;2023-07-24T08:46:17;97373.19;;;26.48;59.51
28267;BME280;15525;45.568;5.448;2023-07-24T08:48:43;97381.41;;;26.38;59.73
28267;BME280;15525;45.568;5.448;2023-07-24T08:51:10;97368.53;;;26.63;59.40
28267;BME280;15525;45.568;5.448;2023-07-24T08:53:37;97371.69;;;26.86;59.09
28267;BME280;15525;45.568;5.448;2023-07-24T08:56:07;97369.75;;;26.93;58.80
28267;BME280;15525;45.568;5.448;2023-07-24T08:58:34;97372.13;;;27.02;59.11
28267;BME280;15525;45.568;5.448;2023-07-24T09:01:00;97402.31;;;26.98;58.88
28267;BME280;15525;45.568;5.448;2023-07-24T09:03:26;97441.53;;;26.78;59.06
28267;BME280;15525;45.568;5.448;2023-07-24T09:05:52;97443.78;;;26.48;60.23
28267;BME280;15525;45.568;5.448;2023-07-24T09:08:29;97444.66;;;26.62;60.02
28267;BME280;15525;45.568;5.448;2023-07-24T09:10:55;97458.47;;;26.90;59.62
28267;BME280;15525;45.568;5.448;2023-07-24T09:13:22;97493.34;;;26.69;59.59
28267;BME280;15525;45.568;5.448;2023-07-24T09:15:47;97504.59;;;26.50;60.22
28267;BME280;15525;45.568;5.448;2023-07-24T09:18:13;97494.09;;;26.73;60.56
28267;BME280;15525;45.568;5.448;2023-07-24T09:20:43;97469.03;;;26.85;60.64
28267;BME280;15525;45.568;5.448;2023-07-24T09:23:09;97429.00;;;26.80;60.99
28267;BME280;15525;45.568;5.448;2023-07-24T09:25:37;97410.84;;;26.55;61.94
28267;BME280;15525;45.568;5.448;2023-07-24T09:28:13;97402.28;;;26.60;61.64
28267;BME280;15525;45.568;5.448;2023-07-24T09:30:40;97399.19;;;27.73;60.64
28267;BME280;15525;45.568;5.448;2023-07-24T09:33:06;97380.72;;;28.71;57.50
28267;BME280;15525;45.568;5.448;2023-07-24T09:35:32;97382.00;;;29.17;56.79
28267;BME280;15525;45.568;5.448;2023-07-24T09:38:02;97387.91;;;28.54;56.22
28267;BME280;15525;45.568;5.448;2023-07-24T09:40:28;97360.91;;;28.90;56.31
28267;BME280;15525;45.568;5.448;2023-07-24T09:42:53;97338.88;;;29.74;55.41
28267;BME280;15525;45.568;5.448;2023-07-24T09:45:18;97343.53;;;30.48;53.28
28267;BME280;15525;45.568;5.448;2023-07-24T09:47:44;97362.84;;;30.78;50.76
28267;BME280;15525;45.568;5.448;2023-07-24T09:50:10;97365.63;;;31.50;49.39
28267;BME280;15525;45.568;5.448;2023-07-24T09:52:37;97386.63;;;31.71;47.77
28267;BME280;15525;45.568;5.448;2023-07-24T09:55:21;97396.75;;;31.81;47.63
28267;BME280;15525;45.568;5.448;2023-07-24T09:57:53;97393.41;;;31.66;46.89
28267;BME280;15525;45.568;5.448;2023-07-24T10:00:19;97394.34;;;32.22;47.71
28267;BME280;15525;45.568;5.448;2023-07-24T10:02:45;97394.59;;;32.31;44.66
28267;BME280;15525;45.568;5.448;2023-07-24T10:05:11;97411.72;;;31.37;44.04
28267;BME280;15525;45.568;5.448;2023-07-24T10:07:37;97394.41;;;30.80;42.95
28267;BME280;15525;45.568;5.448;2023-07-24T10:10:03;97394.50;;;30.13;44.50
28267;BME280;15525;45.568;5.448;2023-07-24T10:12:29;97384.19;;;30.47;48.88
28267;BME280;15525;45.568;5.448;2023-07-24T10:14:56;97385.09;;;31.20;49.07
28267;BME280;15525;45.568;5.448;2023-07-24T10:17:39;97381.25;;;31.14;46.80
28267;BME280;15525;45.568;5.448;2023-07-24T10:20:06;97381.09;;;30.72;47.26
28267;BME280;15525;45.568;5.448;2023-07-24T10:22:32;97382.66;;;30.73;45.36
28267;BME280;15525;45.568;5.448;2023-07-24T10:24:58;97385.13;;;30.64;45.56
28267;BME280;15525;45.568;5.448;2023-07-24T10:27:24;97387.69;;;30.81;47.11
28267;BME280;15525;45.568;5.448;2023-07-24T10:30:03;97390.66;;;31.43;46.29
28267;BME280;15525;45.568;5.448;2023-07-24T10:32:30;97369.78;;;32.43;45.22
28267;BME280;15525;45.568;5.448;2023-07-24T10:34:58;97362.25;;;32.95;44.37
28267;BME280;15525;45.568;5.448;2023-07-24T10:37:35;97362.06;;;32.86;43.59
28267;BME280;15525;45.568;5.448;2023-07-24T10:40:00;97357.41;;;32.48;43.07
28267;BME280;15525;45.568;5.448;2023-07-24T10:42:26;97362.25;;;32.95;43.29
28267;BME280;15525;45.568;5.448;2023-07-24T10:45:07;97368.00;;;33.52;40.04
28267;BME280;15525;45.568;5.448;2023-07-24T10:47:33;97361.47;;;32.79;39.89
28267;BME280;15525;45.568;5.448;2023-07-24T10:49:59;97368.25;;;31.80;41.38
28267;BME280;15525;45.568;5.448;2023-07-24T10:52:30;97350.16;;;32.15;40.42
28267;BME280;15525;45.568;5.448;2023-07-24T10:54:56;97360.69;;;31.61;41.84
28267;BME280;15525;45.568;5.448;2023-07-24T10:57:26;97345.28;;;32.58;39.98
28267;BME280;15525;45.568;5.448;2023-07-24T10:59:52;97337.28;;;32.95;39.59
28267;BME280;15525;45.568;5.448;2023-07-24T11:02:17;97341.91;;;33.34;38.74
28267;BME280;15525;45.568;5.448;2023-07-24T11:04:43;97336.38;;;32.66;39.71
28267;BME280;15525;45.568;5.448;2023-07-24T11:07:08;97329.50;;;32.90;38.53
28267;BME280;15525;45.568;5.448;2023-07-24T11:09:39;97338.16;;;33.24;38.18
28267;BME280;15525;45.568;5.448;2023-07-24T11:12:15;97341.84;;;33.37;38.21
28267;BME280;15525;45.568;5.448;2023-07-24T11:14:49;97333.50;;;33.37;37.11
28267;BME280;15525;45.568;5.448;2023-07-24T11:17:15;97329.47;;;33.22;37.39
28267;BME280;15525;45.568;5.448;2023-07-24T11:19:40;97312.97;;;32.51;39.10
28267;BME280;15525;45.568;5.448;2023-07-24T11:22:06;97319.25;;;33.19;38.81
28267;BME280;15525;45.568;5.448;2023-07-24T11:24:32;97316.50;;;33.19;37.50
28267;BME280;15525;45.568;5.448;2023-07-24T11:26:57;97316.88;;;32.70;38.83
28267;BME280;15525;45.568;5.448;2023-07-24T11:29:23;97302.00;;;31.89;38.88
28267;BME280;15525;45.568;5.448;2023-07-24T11:31:54;97309.97;;;31.87;39.99
28267;BME280;15525;45.568;5.448;2023-07-24T11:34:20;97299.84;;;32.16;39.72
28267;BME280;15525;45.568;5.448;2023-07-24T11:36:46;97291.69;;;32.29;38.98
28267;BME280;15525;45.568;5.448;2023-07-24T11:39:11;97289.19;;;32.86;38.12
28267;BME280;15525;45.568;5.448;2023-07-24T11:41:37;97293.34;;;33.10;38.11
28267;BME280;15525;45.568;5.448;2023-07-24T11:44:02;97285.16;;;33.19;38.34
28267;BME280;15525;45.568;5.448;2023-07-24T11:46:29;97307.13;;;32.97;38.26
28267;BME280;15525;45.568;5.448;2023-07-24T11:48:57;97289.19;;;32.34;39.02
28267;BME280;15525;45.568;5.448;2023-07-24T11:51:23;97291.50;;;32.55;39.21
28267;BME280;15525;45.568;5.448;2023-07-24T11:53:51;97274.97;;;33.00;39.22
28267;BME280;15525;45.568;5.448;2023-07-24T11:56:17;97255.25;;;33.42;38.62
28267;BME280;15525;45.568;5.448;2023-07-24T11:58:44;97257.94;;;33.58;36.81
28267;BME280;15525;45.568;5.448;2023-07-24T12:01:12;97263.22;;;32.76;38.42
28267;BME280;15525;45.568;5.448;2023-07-24T12:03:37;97246.16;;;32.46;39.21
28267;BME280;15525;45.568;5.448;2023-07-24T12:06:03;97233.00;;;32.66;38.89
28267;BME280;15525;45.568;5.448;2023-07-24T12:08:33;97228.66;;;32.49;39.01
28267;BME280;15525;45.568;5.448;2023-07-24T12:11:00;97235.88;;;32.46;39.31
28267;BME280;15525;45.568;5.448;2023-07-24T12:13:25;97228.06;;;32.57;38.44
28267;BME280;15525;45.568;5.448;2023-07-24T12:15:51;97208.13;;;32.62;39.55
28267;BME280;15525;45.568;5.448;2023-07-24T12:18:16;97209.34;;;32.77;38.37
28267;BME280;15525;45.568;5.448;2023-07-24T12:20:42;97201.16;;;32.22;38.80
28267;BME280;15525;45.568;5.448;2023-07-24T12:23:07;97222.16;;;32.04;38.75
28267;BME280;15525;45.568;5.448;2023-07-24T12:25:32;97210.69;;;31.66;39.92
28267;BME280;15525;45.568;5.448;2023-07-24T12:27:58;97223.75;;;31.46;40.91
28267;BME280;15525;45.568;5.448;2023-07-24T12:30:24;97213.31;;;31.34;41.00
28267;BME280;15525;45.568;5.448;2023-07-24T12:32:49;97219.72;;;31.31;40.91
28267;BME280;15525;45.568;5.448;2023-07-24T12:35:16;97226.81;;;31.52;41.02
28267;BME280;15525;45.568;5.448;2023-07-24T12:37:42;97208.41;;;31.61;40.79
28267;BME280;15525;45.568;5.448;2023-07-24T12:40:08;97203.72;;;31.58;40.20
28267;BME280;15525;45.568;5.448;2023-07-24T12:42:34;97211.03;;;31.29;40.55
28267;BME280;15525;45.568;5.448;2023-07-24T12:45:00;97218.72;;;31.41;40.74
28267;BME280;15525;45.568;5.448;2023-07-24T12:47:28;97220.81;;;31.14;42.17
28267;BME280;15525;45.568;5.448;2023-07-24T12:49:53;97197.63;;;31.47;42.00
28267;BME280;15525;45.568;5.448;2023-07-24T12:52:20;97192.81;;;31.32;43.22
28267;BME280;15525;45.568;5.448;2023-07-24T12:54:46;97226.22;;;30.75;45.30
28267;BME280;15525;45.568;5.448;2023-07-24T12:57:11;97224.53;;;30.05;47.52
28267;BME280;15525;45.568;5.448;2023-07-24T12:59:37;97251.13;;;30.22;48.71